Time;durP1;ratioP1;P1;durP2;ratioP2;P2;SDS_P1;SDS_P2;PMS_P1;PMS_P2;Temp;Humidity;BMP_temperature;BMP_pressure;BME280_temperature;BME280_humidity;BME280_pressure;Samples;Min_cycle;Max_cycle;Signal;HPM_P1;HPM_P2
2022/06/06 00:01:24;;;;;;;5.95;4.32;;;13.30;99.90;;;;;;4972312;28;20019;-59
2022/06/06 00:03:50;;;;;;;6.05;3.72;;;13.30;99.90;;;;;;4971802;28;20042;-60
2022/06/06 00:06:19;;;;;;;4.18;3.63;;;13.10;99.90;;;;;;4972684;28;20058;-59
2022/06/06 00:08:47;;;;;;;4.03;3.70;;;13.50;99.90;;;;;;4972370;28;20380;-59
2022/06/06 00:11:13;;;;;;;5.35;3.90;;;13.40;99.90;;;;;;4972543;28;20555;-59
2022/06/06 00:13:42;;;;;;;5.65;3.63;;;13.20;99.90;;;;;;4972481;28;20047;-59
2022/06/06 00:16:08;;;;;;;4.50;3.40;;;13.40;99.90;;;;;;4972181;28;20046;-59
2022/06/06 00:18:35;;;;;;;7.15;4.28;;;13.20;99.90;;;;;;4975812;28;20018;-59
2022/06/06 00:21:02;;;;;;;4.60;4.03;;;13.00;99.90;;;;;;4976148;28;20047;-59
2022/06/06 00:23:27;;;;;;;8.93;5.60;;;13.10;99.90;;;;;;4976022;28;20487;-59
2022/06/06 00:25:54;;;;;;;5.55;4.10;;;12.80;99.90;;;;;;4976272;28;20078;-59
2022/06/06 00:28:21;;;;;;;6.03;4.50;;;12.70;99.90;;;;;;4976088;28;20058;-59
2022/06/06 00:30:47;;;;;;;5.28;4.20;;;12.80;99.90;;;;;;4990405;28;20451;-59
2022/06/06 00:35:59;;;;;;;4.55;4.10;;;12.70;99.90;;;;;;4976241;28;20097;-59
2022/06/06 00:38:25;;;;;;;6.18;4.57;;;12.70;99.90;;;;;;4975573;28;20384;-59
2022/06/06 00:40:51;;;;;;;5.35;4.85;;;12.70;99.90;;;;;;4976190;28;20049;-59
2022/06/06 00:43:18;;;;;;;5.55;4.40;;;12.60;99.90;;;;;;4975304;28;20074;-60
2022/06/06 00:45:46;;;;;;;5.90;4.05;;;12.70;99.90;;;;;;4975279;28;20399;-59
2022/06/06 00:48:24;;;;;;;4.57;4.18;;;12.90;99.90;;;;;;4975431;28;20026;-59
2022/06/06 00:51:08;;;;;;;4.47;4.07;;;12.60;99.90;;;;;;4975563;28;20037;-59
2022/06/06 00:53:48;;;;;;;5.65;4.60;;;12.50;99.90;;;;;;4975768;28;20038;-59
2022/06/06 00:56:24;;;;;;;5.60;4.45;;;12.50;99.90;;;;;;4975744;28;20130;-59
2022/06/06 00:58:55;;;;;;;4.80;4.40;;;12.50;99.90;;;;;;4975749;28;20525;-60
2022/06/06 01:01:22;;;;;;;4.40;4.00;;;13.00;99.90;;;;;;4974720;28;20034;-59
2022/06/06 01:03:48;;;;;;;6.13;4.50;;;12.80;99.90;;;;;;4975320;28;20414;-59
2022/06/06 01:06:17;;;;;;;4.43;4.00;;;12.50;99.90;;;;;;4975050;28;20031;-59
2022/06/06 01:08:44;;;;;;;4.95;4.50;;;12.50;99.90;;;;;;4974970;28;20027;-60
2022/06/06 01:11:10;;;;;;;6.00;4.40;;;12.40;99.90;;;;;;4975615;28;20038;-60
2022/06/06 01:13:39;;;;;;;4.90;4.40;;;12.40;99.90;;;;;;4975249;28;20089;-59
2022/06/06 01:16:10;;;;;;;8.85;4.40;;;12.50;99.90;;;;;;4974581;28;20030;-59
2022/06/06 01:18:44;;;;;;;4.47;4.05;;;12.70;99.90;;;;;;4974835;28;20030;-59
2022/06/06 01:21:34;;;;;;;4.57;4.18;;;12.40;99.90;;;;;;4974915;28;20038;-59
2022/06/06 01:24:27;;;;;;;4.65;4.25;;;12.30;99.90;;;;;;4974931;28;20027;-59
2022/06/06 01:27:14;;;;;;;4.70;4.25;;;12.20;99.90;;;;;;4975079;28;20105;-58
2022/06/06 01:29:56;;;;;;;6.13;4.50;;;12.20;99.90;;;;;;4974503;28;20023;-59
2022/06/06 01:32:23;;;;;;;5.10;4.60;;;12.20;99.90;;;;;;4974798;28;20022;-59
2022/06/06 01:34:53;;;;;;;5.13;4.50;;;12.30;99.90;;;;;;4975179;28;20042;-59
2022/06/06 01:37:31;;;;;;;4.10;3.80;;;12.30;99.90;;;;;;4974585;28;20025;-59
2022/06/06 01:39:59;;;;;;;5.35;4.20;;;12.70;99.90;;;;;;4974566;28;20050;-59
2022/06/06 01:42:28;;;;;;;4.22;3.83;;;12.70;99.90;;;;;;4974444;28;20054;-59
2022/06/06 01:45:11;;;;;;;5.68;5.07;;;12.50;99.90;;;;;;4974514;28;20439;-59
2022/06/06 01:47:52;;;;;;;7.45;4.93;;;12.50;99.90;;;;;;4974578;28;20101;-60
2022/06/06 01:50:21;;;;;;;5.22;4.70;;;12.40;99.90;;;;;;4974783;28;20550;-59
2022/06/06 01:52:51;;;;;;;5.65;5.00;;;12.50;99.90;;;;;;4974861;28;20026;-59
2022/06/06 01:55:17;;;;;;;5.82;5.00;;;12.50;99.90;;;;;;4974093;28;20121;-59
2022/06/06 01:57:45;;;;;;;5.35;4.85;;;12.50;99.90;;;;;;4973954;28;20105;-60
2022/06/06 02:00:11;;;;;;;6.63;4.80;;;12.50;99.90;;;;;;4974081;28;20034;-60
2022/06/06 02:02:39;;;;;;;6.50;4.60;;;12.60;99.90;;;;;;4974213;28;20043;-60
2022/06/06 02:05:05;;;;;;;7.45;5.00;;;12.60;99.90;;;;;;4974367;28;20054;-59
2022/06/06 02:07:31;;;;;;;5.70;4.43;;;12.60;99.90;;;;;;4974436;28;20046;-59
2022/06/06 02:09:57;;;;;;;5.57;3.70;;;12.60;99.90;;;;;;4974234;28;20501;-59
2022/06/06 02:12:23;;;;;;;4.95;4.10;;;12.90;99.90;;;;;;4973546;28;20186;-59
2022/06/06 02:14:48;;;;;;;4.50;4.10;;;12.90;99.90;;;;;;4974164;28;20106;-59
2022/06/06 02:17:14;;;;;;;5.05;3.97;;;12.90;99.90;;;;;;4974307;28;20023;-58
2022/06/06 02:19:40;;;;;;;4.50;4.05;;;13.00;99.90;;;;;;4972284;28;20026;-59
2022/06/06 02:22:06;;;;;;;4.45;4.05;;;13.20;99.90;;;;;;4973690;28;20575;-59
2022/06/06 02:24:32;;;;;;;5.40;4.90;;;13.00;99.90;;;;;;4973565;28;20511;-59
2022/06/06 02:26:58;;;;;;;7.30;4.85;;;12.80;99.90;;;;;;4973314;28;20031;-59
2022/06/06 02:29:23;;;;;;;5.90;4.97;;;12.80;99.90;;;;;;4974033;28;20030;-59
2022/06/06 02:31:49;;;;;;;5.20;4.80;;;12.70;99.90;;;;;;4974005;28;20031;-59
2022/06/06 02:34:16;;;;;;;5.55;4.30;;;12.70;99.90;;;;;;4973378;28;20784;-59
2022/06/06 02:36:41;;;;;;;6.32;5.05;;;12.80;99.90;;;;;;4973669;28;20039;-58
2022/06/06 02:39:07;;;;;;;6.05;4.50;;;12.70;99.90;;;;;;4972850;28;20084;-59
2022/06/06 02:41:33;;;;;;;5.20;4.70;;;12.60;99.90;;;;;;4971992;28;20018;-59
2022/06/06 02:43:58;;;;;;;5.90;5.30;;;12.60;99.90;;;;;;4974034;28;20439;-59
2022/06/06 02:46:24;;;;;;;5.47;4.80;;;12.50;99.90;;;;;;4973403;28;20050;-59
2022/06/06 02:48:50;;;;;;;5.30;4.80;;;12.50;99.90;;;;;;4973214;28;20141;-59
2022/06/06 02:51:16;;;;;;;5.20;4.50;;;12.50;99.90;;;;;;4973110;28;20027;-59
2022/06/06 02:53:41;;;;;;;4.85;4.20;;;12.50;99.90;;;;;;4973470;28;20118;-59
2022/06/06 02:56:07;;;;;;;5.78;4.75;;;12.70;99.90;;;;;;4973172;28;20034;-59
2022/06/06 02:58:33;;;;;;;5.13;4.63;;;12.70;99.90;;;;;;4973681;28;20058;-59
2022/06/06 03:01:06;;;;;;;5.35;4.70;;;12.80;99.90;;;;;;4972963;28;20034;-59
2022/06/06 03:03:32;;;;;;;5.28;4.50;;;12.70;99.90;;;;;;4967500;28;20043;-59
2022/06/06 03:06:29;;;;;;;5.13;4.65;;;12.50;99.90;;;;;;4973070;28;20289;-59
2022/06/06 03:09:09;;;;;;;5.35;4.85;;;12.60;99.90;;;;;;4973224;28;20471;-59
2022/06/06 03:11:50;;;;;;;6.00;4.95;;;12.70;99.90;;;;;;4972592;28;20450;-59
2022/06/06 03:14:40;;;;;;;5.30;4.72;;;12.70;99.90;;;;;;4972850;28;20039;-59
2022/06/06 03:20:46;;;;;;;7.03;4.68;;;12.70;99.90;;;;;;4970671;28;20047;-59
2022/06/06 03:24:01;;;;;;;5.10;4.63;;;12.60;99.90;;;;;;4970533;28;20034;-59
2022/06/06 03:26:49;;;;;;;5.68;5.18;;;12.70;99.90;;;;;;4956755;28;20035;-59
2022/06/06 03:29:27;;;;;;;5.50;5.00;;;12.60;99.90;;;;;;4971000;28;20550;-59
2022/06/06 03:32:19;;;;;;;6.35;5.38;;;12.70;99.90;;;;;;4973134;28;20035;-59
2022/06/06 03:34:50;;;;;;;5.60;5.03;;;12.80;99.90;;;;;;4971631;28;20050;-59
2022/06/06 03:37:32;;;;;;;6.60;5.90;;;13.00;99.90;;;;;;4972819;28;20105;-59
2022/06/06 03:40:19;;;;;;;7.53;6.63;;;13.00;99.90;;;;;;4972242;28;20035;-59
2022/06/06 03:43:17;;;;;;;7.40;6.22;;;13.10;99.90;;;;;;4972445;28;20105;-59
2022/06/06 03:45:55;;;;;;;8.10;5.90;;;12.90;99.90;;;;;;4972853;28;20021;-59
2022/06/06 03:48:39;;;;;;;7.50;6.10;;;13.10;99.90;;;;;;4972475;28;20514;-59
2022/06/06 03:51:14;;;;;;;7.47;5.40;;;13.10;99.90;;;;;;4972295;28;20061;-59
2022/06/06 03:54:01;;;;;;;6.63;5.93;;;13.20;99.90;;;;;;4976543;28;20448;-59
2022/06/06 03:56:39;;;;;;;7.00;6.30;;;13.20;99.90;;;;;;4976571;28;20444;-59
2022/06/06 03:59:08;;;;;;;7.80;7.00;;;13.00;99.90;;;;;;4973665;28;20046;-59
2022/06/06 04:01:37;;;;;;;9.20;7.90;;;12.90;99.90;;;;;;4975552;28;20483;-59
2022/06/06 04:04:04;;;;;;;7.88;7.15;;;12.90;99.90;;;;;;4976305;28;20073;-59
2022/06/06 04:06:33;;;;;;;8.55;7.85;;;13.00;99.90;;;;;;4976559;28;20033;-59
2022/06/06 04:08:59;;;;;;;9.13;8.15;;;13.00;99.90;;;;;;4976001;28;20105;-59
2022/06/06 04:11:45;;;;;;;9.48;8.27;;;12.90;99.90;;;;;;4976144;28;20098;-59
2022/06/06 04:14:35;;;;;;;13.35;9.48;;;12.90;99.90;;;;;;4974025;28;20035;-59
2022/06/06 04:17:17;;;;;;;11.18;10.02;;;13.00;99.90;;;;;;4976532;28;20054;-59
2022/06/06 04:20:14;;;;;;;12.05;10.45;;;13.00;99.90;;;;;;4975049;28;20027;-59
2022/06/06 04:22:40;;;;;;;13.13;11.32;;;13.00;99.90;;;;;;4976186;28;20035;-59
2022/06/06 04:25:24;;;;;;;13.88;12.52;;;12.90;99.90;;;;;;4976005;28;20468;-59
2022/06/06 04:27:52;;;;;;;14.73;12.10;;;13.00;99.90;;;;;;4976193;28;20553;-59
2022/06/06 04:30:42;;;;;;;12.93;11.65;;;12.90;99.90;;;;;;4975870;28;20394;-59
2022/06/06 04:33:25;;;;;;;13.70;12.00;;;12.90;99.90;;;;;;4975776;28;20542;-59
2022/06/06 04:36:16;;;;;;;13.50;12.02;;;12.90;99.90;;;;;;4975897;28;20042;-59
2022/06/06 04:38:52;;;;;;;11.98;10.18;;;12.90;99.90;;;;;;4975506;28;20042;-59
2022/06/06 04:41:35;;;;;;;8.00;7.30;;;13.00;99.90;;;;;;4975616;28;20085;-59
2022/06/06 04:44:45;;;;;;;7.45;6.75;;;13.90;99.90;;;;;;4972467;28;20034;-58
2022/06/06 04:47:26;;;;;;;9.98;7.72;;;14.10;99.90;;;;;;4971409;28;20039;-59
2022/06/06 04:49:54;;;;;;;8.13;7.32;;;13.60;99.90;;;;;;4973568;28;20039;-59
2022/06/06 04:52:22;;;;;;;9.88;8.35;;;13.60;99.90;;;;;;4972618;28;20058;-59
2022/06/06 04:54:50;;;;;;;10.05;9.05;;;13.40;99.90;;;;;;4973052;28;20043;-59
2022/06/06 04:57:18;;;;;;;11.00;9.60;;;13.40;99.90;;;;;;4973503;28;20469;-59
2022/06/06 04:59:45;;;;;;;10.90;9.32;;;13.40;99.90;;;;;;4958405;28;20515;-59
2022/06/06 05:02:11;;;;;;;11.13;9.55;;;13.40;99.90;;;;;;4970313;28;20054;-59
2022/06/06 05:04:37;;;;;;;12.75;11.43;;;13.60;99.90;;;;;;4973546;28;20543;-59
2022/06/06 05:07:36;;;;;;;14.20;11.95;;;13.60;99.90;;;;;;4972496;28;20027;-59
2022/06/06 05:10:15;;;;;;;10.68;9.52;;;13.80;99.90;;;;;;4972946;28;20022;-59
2022/06/06 05:12:55;;;;;;;10.88;9.55;;;14.10;99.90;;;;;;4972944;28;20118;-59
2022/06/06 05:15:40;;;;;;;11.32;9.27;;;14.10;99.90;;;;;;4972739;28;20050;-59
2022/06/06 05:18:32;;;;;;;13.85;9.63;;;14.00;99.90;;;;;;4972723;28;20022;-59
2022/06/06 05:21:12;;;;;;;11.35;8.80;;;13.90;99.90;;;;;;4973231;28;20089;-59
2022/06/06 05:23:48;;;;;;;10.43;9.38;;;14.00;99.90;;;;;;4973357;28;20518;-59
2022/06/06 05:26:26;;;;;;;11.43;9.90;;;14.10;99.90;;;;;;4974153;28;20038;-59
2022/06/06 05:29:04;;;;;;;9.68;8.75;;;14.00;99.90;;;;;;4974830;28;20023;-59
2022/06/06 05:31:50;;;;;;;10.43;9.30;;;14.00;99.90;;;;;;4974433;28;20035;-59
2022/06/06 05:34:31;;;;;;;8.27;7.47;;;14.10;99.90;;;;;;4974332;28;20491;-59
2022/06/06 05:37:26;;;;;;;11.27;8.65;;;14.40;99.90;;;;;;4974219;28;20030;-59
2022/06/06 05:40:12;;;;;;;9.77;8.77;;;14.50;99.90;;;;;;4942129;29;20573;-59
2022/06/06 05:42:57;;;;;;;7.80;7.00;;;14.40;99.90;;;;;;4937638;29;20039;-59
2022/06/06 05:45:48;;;;;;;8.70;7.50;;;14.50;99.90;;;;;;4937775;29;20185;-59
2022/06/06 05:48:28;;;;;;;9.68;7.65;;;14.80;99.90;;;;;;4938087;29;20030;-59
2022/06/06 05:51:13;;;;;;;10.70;9.70;;;15.00;99.90;;;;;;4936342;29;20035;-59
2022/06/06 05:53:54;;;;;;;9.43;8.18;;;14.80;99.90;;;;;;4934648;29;20023;-59
2022/06/06 05:56:51;;;;;;;10.13;8.35;;;14.80;99.90;;;;;;4934429;29;20508;-59
2022/06/06 05:59:35;;;;;;;9.27;8.18;;;15.10;99.90;;;;;;4948902;29;20042;-59
2022/06/06 06:02:25;;;;;;;8.68;7.45;;;15.20;99.90;;;;;;4936441;29;20059;-59
2022/06/06 06:05:08;;;;;;;8.07;6.93;;;15.50;99.90;;;;;;4937151;29;20050;-59
2022/06/06 06:08:01;;;;;;;9.68;6.80;;;15.80;99.90;;;;;;4937027;29;20090;-59
2022/06/06 06:10:38;;;;;;;6.13;5.63;;;16.80;99.90;;;;;;4937646;29;20047;-59
2022/06/06 06:13:10;;;;;;;7.43;6.13;;;17.00;99.90;;;;;;4937182;29;20016;-59
2022/06/06 06:15:40;;;;;;;6.35;5.70;;;17.00;99.90;;;;;;4938900;28;20462;-59
2022/06/06 06:18:19;;;;;;;7.95;5.53;;;16.90;99.90;;;;;;4973583;28;20504;-59
2022/06/06 06:20:51;;;;;;;6.47;5.53;;;17.10;99.90;;;;;;4973259;28;20027;-59
2022/06/06 06:23:22;;;;;;;9.73;5.65;;;17.40;99.90;;;;;;4973617;28;20019;-60
2022/06/06 06:25:49;;;;;;;6.68;5.32;;;17.20;99.90;;;;;;4974128;28;20027;-59
2022/06/06 06:28:16;;;;;;;5.68;5.07;;;17.40;99.90;;;;;;4973532;28;20040;-59
2022/06/06 06:31:09;;;;;;;5.43;4.75;;;17.60;99.90;;;;;;4973130;28;20376;-60
2022/06/06 06:34:01;;;;;;;7.25;4.68;;;19.20;99.90;;;;;;4973111;28;20026;-59
2022/06/06 06:36:46;;;;;;;5.80;4.55;;;19.00;99.90;;;;;;4973421;28;20046;-59
2022/06/06 06:39:49;;;;;;;6.85;5.00;;;18.80;99.90;;;;;;4973179;28;20035;-60
2022/06/06 06:42:36;;;;;;;6.65;3.95;;;18.40;99.90;;;;;;4973380;28;20031;-59
2022/06/06 06:45:11;;;;;;;5.47;3.58;;;22.60;99.90;;;;;;4973144;28;20089;-59
2022/06/06 06:47:37;;;;;;;5.18;3.10;;;26.50;99.90;;;;;;4973482;28;20034;-60
2022/06/06 06:50:18;;;;;;;4.85;3.38;;;25.70;99.90;;;;;;4973612;28;20023;-59
2022/06/06 06:53:12;;;;;;;4.75;2.95;;;25.30;99.90;;;;;;4973841;28;20031;-59
2022/06/06 06:56:05;;;;;;;6.38;2.80;;;24.10;99.90;;;;;;4973300;28;20042;-59
2022/06/06 06:59:23;;;;;;;5.65;2.95;;;23.20;99.90;;;;;;4973392;28;20062;-59
2022/06/06 07:10:44;;;;;;;3.47;2.70;;;22.30;99.90;;;;;;4937106;29;20035;-60
2022/06/06 07:13:30;;;;;;;4.03;2.50;;;22.20;99.90;;;;;;4936245;29;20040;-60
2022/06/06 07:16:02;;;;;;;2.88;2.42;;;21.90;99.90;;;;;;4936071;29;20052;-60
2022/06/06 07:18:33;;;;;;;3.30;2.00;;;21.50;99.90;;;;;;4936055;29;20059;-59
2022/06/06 07:21:01;;;;;;;3.00;2.15;;;22.90;99.90;;;;;;4935895;29;20031;-60
2022/06/06 07:23:33;;;;;;;5.25;1.98;;;22.80;99.90;;;;;;4931842;29;20051;-58
2022/06/06 07:26:01;;;;;;;4.80;2.30;;;22.50;99.90;;;;;;4947877;28;20158;-59
2022/06/06 07:28:26;;;;;;;4.03;2.03;;;23.20;99.90;;;;;;4936493;29;20047;-60
2022/06/06 07:31:01;;;;;;;5.05;1.90;;;24.30;99.90;;;;;;4935611;29;20560;-60
2022/06/06 07:33:54;;;;;;;2.58;1.70;;;23.50;99.90;;;;;;4935434;29;20459;-59
2022/06/06 07:36:29;;;;;;;4.05;1.90;;;22.40;99.90;;;;;;4942422;28;20447;-60
2022/06/06 07:39:23;;;;;;;4.35;2.15;;;22.50;99.90;;;;;;4971206;28;20039;-59
2022/06/06 07:42:15;;;;;;;2.95;1.70;;;22.10;99.90;;;;;;4972639;28;20037;-59
2022/06/06 07:45:01;;;;;;;1.85;1.60;;;22.10;99.90;;;;;;4972541;28;20026;-60
2022/06/06 07:47:47;;;;;;;3.38;1.83;;;22.90;99.90;;;;;;4972459;28;20122;-60
2022/06/06 07:50:26;;;;;;;4.65;1.80;;;22.90;99.90;;;;;;4970667;28;20094;-60
2022/06/06 07:53:10;;;;;;;2.22;1.70;;;25.50;99.90;;;;;;4972990;28;20104;-60
2022/06/06 07:55:47;;;;;;;2.05;1.70;;;24.00;99.90;;;;;;4972116;28;20480;-60
2022/06/06 07:58:41;;;;;;;3.33;2.05;;;22.60;99.90;;;;;;4972261;28;20684;-60
2022/06/06 08:01:19;;;;;;;4.25;2.00;;;22.40;99.90;;;;;;4937854;29;20035;-60
2022/06/06 08:04:22;;;;;;;2.30;1.80;;;21.60;99.90;;;;;;4935651;29;20597;-60
2022/06/06 08:07:20;;;;;;;5.60;1.80;;;21.40;99.90;;;;;;4936125;29;20127;-60
2022/06/06 08:10:30;;;;;;;2.55;1.70;;;21.40;99.90;;;;;;4935601;29;20560;-60
2022/06/06 08:13:04;;;;;;;2.33;1.73;;;21.10;99.90;;;;;;4935513;29;20078;-60
2022/06/06 08:15:51;;;;;;;3.83;1.70;;;21.00;99.90;;;;;;4935391;29;20496;-60
2022/06/06 08:18:24;;;;;;;3.28;1.88;;;20.70;99.90;;;;;;4935931;29;20058;-60
2022/06/06 08:21:26;;;;;;;3.75;1.77;;;20.70;99.90;;;;;;4933749;29;20070;-59
2022/06/06 08:23:55;;;;;;;3.83;1.52;;;20.60;99.90;;;;;;4920172;29;20516;-60
2022/06/06 08:26:25;;;;;;;3.88;1.80;;;20.80;99.90;;;;;;4916983;29;20048;-60
2022/06/06 08:28:51;;;;;;;2.95;1.77;;;20.20;99.90;;;;;;4935127;29;20043;-60
2022/06/06 08:31:18;;;;;;;4.97;1.70;;;20.30;99.90;;;;;;4934810;29;20123;-60
2022/06/06 08:33:45;;;;;;;2.65;1.88;;;20.50;99.90;;;;;;4935593;29;20023;-60
2022/06/06 08:36:27;;;;;;;3.38;1.83;;;20.90;99.90;;;;;;4931882;29;20046;-60
2022/06/06 08:39:33;;;;;;;2.78;1.52;;;20.80;99.90;;;;;;4953397;29;20035;-60
2022/06/06 08:42:11;;;;;;;2.63;1.70;;;20.90;99.90;;;;;;4942128;29;20039;-59
2022/06/06 08:44:48;;;;;;;3.97;1.70;;;21.20;99.90;;;;;;4939188;29;20016;-59
2022/06/06 08:47:31;;;;;;;3.33;1.60;;;21.30;99.90;;;;;;4953577;29;20519;-59
2022/06/06 08:52:48;;;;;;;2.45;1.55;;;21.70;99.90;;;;;;4975615;28;20484;-60
2022/06/06 08:55:35;;;;;;;3.95;1.67;;;21.50;99.90;;;;;;4973355;28;20130;-59
2022/06/06 08:58:10;;;;;;;2.45;1.65;;;21.80;99.90;;;;;;4970743;28;20551;-59
2022/06/06 09:01:12;;;;;;;3.60;1.70;;;21.20;99.90;;;;;;4972738;28;20451;-59
2022/06/06 09:04:18;;;;;;;3.90;1.50;;;21.60;99.90;;;;;;4972845;28;20081;-59
2022/06/06 09:06:56;;;;;;;3.45;1.70;;;21.10;99.90;;;;;;4970996;28;20029;-59
2022/06/06 09:09:47;;;;;;;4.10;1.50;;;21.50;99.90;;;;;;4971141;28;20045;-59
2022/06/06 09:12:43;;;;;;;4.85;1.60;;;21.30;99.90;;;;;;4964961;28;20033;-58
2022/06/06 09:15:27;;;;;;;4.32;1.52;;;21.70;99.90;;;;;;4974158;28;20033;-60
2022/06/06 09:18:02;;;;;;;2.67;1.45;;;21.60;99.90;;;;;;4970549;28;20035;-60
2022/06/06 09:20:30;;;;;;;4.55;1.60;;;21.40;99.90;;;;;;4974830;28;20511;-60
2022/06/06 09:23:25;;;;;;;4.85;1.65;;;21.70;99.90;;;;;;4974932;28;20019;-60
2022/06/06 09:26:28;;;;;;;2.67;1.58;;;21.90;99.90;;;;;;4938167;29;20051;-60
2022/06/06 09:29:21;;;;;;;1.63;1.40;;;22.00;99.90;;;;;;4938100;28;20035;-60
2022/06/06 09:32:20;;;;;;;2.22;1.58;;;25.40;99.90;;;;;;4938352;29;20051;-60
2022/06/06 09:35:10;;;;;;;3.10;1.60;;;27.10;99.90;;;;;;4938756;29;20050;-60
2022/06/06 09:38:13;;;;;;;4.68;1.70;;;28.00;99.90;;;;;;4938547;29;20039;-61
2022/06/06 09:40:44;;;;;;;4.57;1.67;;;26.70;99.90;;;;;;4937724;29;20077;-59
2022/06/06 09:43:30;;;;;;;3.05;1.60;;;25.00;99.90;;;;;;4936920;29;20044;-61
2022/06/06 09:46:13;;;;;;;2.35;1.58;;;24.80;99.90;;;;;;4937545;29;20055;-61
2022/06/06 09:49:01;;;;;;;1.88;1.40;;;24.70;99.90;;;;;;4938286;28;20036;-61
2022/06/06 09:51:53;;;;;;;3.80;1.90;;;23.80;99.90;;;;;;4938201;29;20223;-61
2022/06/06 10:00:20;;;;;;;3.10;1.50;;;25.10;99.90;;;;;;4937430;29;20042;-61
2022/06/06 10:03:19;;;;;;;2.17;1.27;;;25.60;99.90;;;;;;4950274;28;20043;-61
2022/06/06 10:06:06;;;;;;;2.00;1.50;;;25.40;99.90;;;;;;4974209;28;20023;-61
2022/06/06 10:08:53;;;;;;;3.58;1.45;;;24.60;99.90;;;;;;4974144;28;20368;-61
2022/06/06 10:11:19;;;;;;;2.38;1.55;;;24.00;99.90;;;;;;4973759;28;20034;-61
2022/06/06 10:14:03;;;;;;;3.60;1.85;;;23.50;99.90;;;;;;4974451;28;20610;-62
2022/06/06 10:16:41;;;;;;;2.25;1.52;;;23.80;99.90;;;;;;4974385;28;20041;-61
2022/06/06 10:19:23;;;;;;;4.72;2.15;;;24.70;99.90;;;;;;4973895;28;20105;-61
2022/06/06 10:21:58;;;;;;;5.50;1.80;;;24.10;99.90;;;;;;4973952;28;20546;-61
2022/06/06 10:24:36;;;;;;;3.08;1.48;;;23.90;99.90;;;;;;4973828;28;20038;-62
2022/06/06 10:27:24;;;;;;;5.22;2.00;;;24.10;99.90;;;;;;4988592;28;20391;-62
2022/06/06 10:30:16;;;;;;;4.00;1.77;;;24.40;99.90;;;;;;4973832;28;20106;-61
2022/06/06 10:33:00;;;;;;;3.35;1.58;;;24.20;99.90;;;;;;4973808;28;20041;-61
2022/06/06 10:35:37;;;;;;;;;;;23.70;99.90;;;;;;4974142;28;20069;-62
2022/06/06 10:38:27;;;;;;;2.42;1.42;;;23.10;99.90;;;;;;4970422;28;20433;-62
2022/06/06 10:41:16;;;;;;;2.17;1.58;;;24.10;99.90;;;;;;4973582;28;20081;-62
2022/06/06 10:43:53;;;;;;;4.13;1.60;;;23.70;99.90;;;;;;4938135;29;20048;-62
2022/06/06 10:47:03;;;;;;;2.20;1.50;;;25.10;99.90;;;;;;4937275;28;20085;-62
2022/06/06 10:50:07;;;;;;;3.25;1.50;;;24.80;99.90;;;;;;4937444;29;20051;-61
2022/06/06 10:53:15;;;;;;;3.15;1.60;;;24.80;99.90;;;;;;4937558;29;20042;-62
2022/06/06 10:56:13;;;;;;;1.70;1.50;;;25.70;99.90;;;;;;4932277;29;20059;-62
2022/06/06 10:58:58;;;;;;;1.50;1.40;;;26.50;99.90;;;;;;4937496;29;20086;-62
2022/06/06 11:01:56;;;;;;;2.53;1.60;;;26.40;99.90;;;;;;4946742;29;20043;-62
2022/06/06 11:04:44;;;;;;;3.13;1.50;;;26.40;99.90;;;;;;4937424;29;20512;-62
2022/06/06 11:07:25;;;;;;;2.85;1.55;;;26.20;99.90;;;;;;4937229;29;20493;-62
2022/06/06 11:10:14;;;;;;;2.30;1.67;;;25.90;99.90;;;;;;4936494;29;20039;-62
2022/06/06 11:13:12;;;;;;;4.25;1.58;;;26.50;99.90;;;;;;4934732;29;20040;-62
2022/06/06 11:16:01;;;;;;;2.40;1.60;;;26.20;99.90;;;;;;4917867;29;20059;-62
2022/06/06 11:18:47;;;;;;;2.45;1.60;;;26.50;99.90;;;;;;4910175;29;20588;-62
2022/06/06 11:21:25;;;;;;;3.00;1.50;;;26.60;99.90;;;;;;4900345;29;20474;-62
2022/06/06 11:24:09;;;;;;;2.75;1.52;;;26.20;99.90;;;;;;4894214;29;20063;-62
2022/06/06 11:27:07;;;;;;;2.17;1.48;;;26.00;99.90;;;;;;4907803;29;20103;-62
2022/06/06 11:29:47;;;;;;;3.00;1.45;;;25.70;99.90;;;;;;4917826;29;20043;-62
2022/06/06 11:32:41;;;;;;;3.53;1.40;;;25.80;99.90;;;;;;4932411;29;20051;-63
2022/06/06 11:35:21;;;;;;;2.45;1.73;;;26.10;99.90;;;;;;4929424;29;20051;-62
2022/06/06 11:38:03;;;;;;;3.42;1.60;;;26.80;99.50;;;;;;4932632;29;20032;-62
2022/06/06 11:40:35;;;;;;;1.75;1.40;;;26.80;99.90;;;;;;4931831;29;20044;-62
2022/06/06 11:43:25;;;;;;;2.85;1.50;;;26.40;99.90;;;;;;4932269;29;20032;-62
2022/06/06 11:46:21;;;;;;;2.63;1.50;;;24.70;99.90;;;;;;4932192;29;20044;-62
2022/06/06 11:49:19;;;;;;;2.35;1.40;;;25.40;99.90;;;;;;4931867;29;20405;-61
2022/06/06 11:52:28;;;;;;;2.65;1.42;;;26.30;99.90;;;;;;4915976;29;20043;-62
2022/06/06 11:55:29;;;;;;;2.92;1.73;;;26.70;99.90;;;;;;4932176;29;20594;-62
2022/06/06 11:58:21;;;;;;;3.28;1.70;;;25.90;99.90;;;;;;4931941;29;20099;-62
2022/06/06 12:01:14;;;;;;;2.75;1.25;;;25.90;99.90;;;;;;4931952;29;20031;-62
2022/06/06 12:04:07;;;;;;;2.78;1.67;;;26.70;99.30;;;;;;4931747;29;20543;-62
2022/06/06 12:06:46;;;;;;;4.03;1.60;;;27.30;98.20;;;;;;4931955;29;20043;-60
2022/06/06 12:09:59;;;;;;;3.15;1.67;;;26.50;98.90;;;;;;4931928;29;20031;-62
2022/06/06 12:12:43;;;;;;;3.20;1.80;;;25.50;99.90;;;;;;4858588;29;20276;-62
2022/06/06 12:15:45;;;;;;;2.45;1.52;;;26.10;99.90;;;;;;4861614;29;20049;-62
2022/06/06 12:18:35;;;;;;;3.15;1.88;;;26.60;99.00;;;;;;4861585;29;20026;-61
2022/06/06 12:21:06;;;;;;;3.80;1.80;;;27.10;99.10;;;;;;4861652;29;20124;-61
2022/06/06 12:23:47;;;;;;;2.15;1.45;;;27.60;98.60;;;;;;4861719;29;20021;-62
2022/06/06 12:26:32;;;;;;;2.67;1.85;;;27.50;99.00;;;;;;4859073;29;20128;-62
2022/06/06 12:29:09;;;;;;;1.85;1.63;;;27.10;97.90;;;;;;4837389;29;20050;-62
2022/06/06 12:31:44;;;;;;;2.78;1.77;;;27.30;98.70;;;;;;4843369;29;20042;-62
2022/06/06 12:35:03;;;;;;;3.83;1.95;;;27.20;98.30;;;;;;4847542;29;20780;-62
2022/06/06 12:37:46;;;;;;;4.35;3.05;;;27.00;97.30;;;;;;4902821;29;20060;-62
2022/06/06 12:40:34;;;;;;;2.85;1.70;;;27.20;97.50;;;;;;4902818;29;20033;-61
2022/06/06 12:43:23;;;;;;;1.90;1.70;;;27.10;97.40;;;;;;4902714;29;20043;-62
2022/06/06 12:46:07;;;;;;;4.45;2.00;;;27.10;98.30;;;;;;4921885;28;20054;-62
2022/06/06 12:49:00;;;;;;;1.83;1.40;;;27.60;97.50;;;;;;4957092;28;20726;-62
2022/06/06 12:51:50;;;;;;;2.80;1.73;;;28.10;98.10;;;;;;4959490;28;20057;-62
2022/06/06 12:54:22;;;;;;;2.97;1.52;;;28.00;97.90;;;;;;4959824;28;20047;-62
2022/06/06 12:57:03;;;;;;;2.90;1.73;;;27.70;98.70;;;;;;4957535;28;20055;-62
2022/06/06 12:59:55;;;;;;;2.45;1.60;;;27.80;98.50;;;;;;4955600;28;20031;-62
2022/06/06 13:02:47;;;;;;;4.30;1.77;;;27.60;98.00;;;;;;4970882;28;20051;-62
2022/06/06 13:05:12;;;;;;;3.53;1.70;;;27.30;97.40;;;;;;4969922;28;20078;-62
2022/06/06 13:08:09;;;;;;;2.58;1.60;;;25.80;98.10;;;;;;4959230;28;20043;-61
2022/06/06 13:11:09;;;;;;;2.92;1.80;;;26.50;98.30;;;;;;4959192;28;20513;-62
2022/06/06 13:13:53;;;;;;;3.15;1.70;;;27.50;97.90;;;;;;4895282;29;20096;-62
2022/06/06 13:16:47;;;;;;;2.95;1.73;;;26.70;97.80;;;;;;4911259;29;20217;-61
2022/06/06 13:19:27;;;;;;;3.70;2.10;;;27.40;98.50;;;;;;4910838;29;20028;-62
2022/06/06 13:22:22;;;;;;;2.05;1.70;;;27.20;98.20;;;;;;4911203;29;20028;-61
2022/06/06 13:25:04;;;;;;;2.88;1.80;;;27.50;97.50;;;;;;4910453;29;20064;-62
2022/06/06 13:27:59;;;;;;;3.60;1.50;;;27.10;98.60;;;;;;4911215;29;20410;-62
2022/06/06 13:30:30;;;;;;;1.90;1.70;;;27.40;98.60;;;;;;4910816;29;20573;-62
2022/06/06 13:33:17;;;;;;;3.63;1.83;;;26.90;98.30;;;;;;4912538;29;20494;-61
2022/06/06 13:36:14;;;;;;;1.90;1.60;;;26.40;98.80;;;;;;4913446;29;20044;-62
2022/06/06 13:39:16;;;;;;;2.63;1.90;;;26.90;99.20;;;;;;4914401;29;20035;-61
2022/06/06 13:42:00;;;;;;;1.95;1.60;;;27.10;98.50;;;;;;4913773;29;20035;-62
2022/06/06 13:44:31;;;;;;;3.65;1.50;;;27.50;98.90;;;;;;4914502;29;20076;-62
2022/06/06 13:47:37;;;;;;;2.10;1.60;;;27.20;99.00;;;;;;4911144;29;20413;-62
2022/06/06 13:50:23;;;;;;;3.42;1.63;;;27.00;99.10;;;;;;4936145;28;20090;-62
2022/06/06 13:53:13;;;;;;;2.97;1.80;;;27.10;99.80;;;;;;4974619;28;20043;-61
2022/06/06 13:55:40;;;;;;;2.33;1.70;;;27.20;98.80;;;;;;4974354;28;20402;-62
2022/06/06 13:58:24;;;;;;;2.03;1.70;;;27.10;99.00;;;;;;4974306;28;20023;-61
2022/06/06 14:01:26;;;;;;;2.80;1.60;;;27.10;99.10;;;;;;4974381;28;20039;-61
2022/06/06 14:04:31;;;;;;;2.20;1.65;;;27.00;98.80;;;;;;4973848;28;20058;-62
2022/06/06 14:07:06;;;;;;;2.88;1.60;;;27.30;98.80;;;;;;4970074;28;20050;-62
2022/06/06 14:09:41;;;;;;;1.77;1.60;;;27.50;98.60;;;;;;4974093;28;20089;-61
2022/06/06 14:12:07;;;;;;;3.60;1.95;;;27.40;98.60;;;;;;4974112;28;20465;-62
2022/06/06 14:14:35;;;;;;;2.38;1.80;;;27.30;98.50;;;;;;4974471;28;20503;-62
2022/06/06 14:17:04;;;;;;;2.33;1.70;;;27.00;98.80;;;;;;4970928;28;20031;-62
2022/06/06 14:20:05;;;;;;;2.40;2.20;;;26.80;99.00;;;;;;4974163;28;20035;-62